createdAt,value
2023-07-20T00:03:56.440Z,49.24
2023-07-20T00:06:24.794Z,49.96
2023-07-20T00:08:52.805Z,50.03
2023-07-20T00:11:20.415Z,50.32
2023-07-20T00:13:48.694Z,49.36
2023-07-20T00:16:16.319Z,49.82
2023-07-20T00:18:44.013Z,50.20
2023-07-20T00:21:13.078Z,50.73
2023-07-20T00:23:41.153Z,50.63
2023-07-20T00:26:08.843Z,50.13
2023-07-20T00:28:36.440Z,49.59
2023-07-20T00:31:04.223Z,52.18
2023-07-20T00:33:32.000Z,50.56
2023-07-20T00:36:00.259Z,50.46
2023-07-20T00:38:29.420Z,50.86
2023-07-20T00:40:56.966Z,51.21
2023-07-20T00:43:24.545Z,49.63
2023-07-20T00:45:52.341Z,50.26
2023-07-20T00:48:20.316Z,50.39
2023-07-20T00:50:49.055Z,50.30
2023-07-20T00:53:17.135Z,49.29
2023-07-20T00:55:46.983Z,49.23
2023-07-20T00:58:14.695Z,47.50
2023-07-20T01:00:42.262Z,46.88
2023-07-20T01:03:09.913Z,49.16
2023-07-20T01:05:48.138Z,49.92
2023-07-20T01:08:23.201Z,50.22
2023-07-20T01:10:58.776Z,49.20
2023-07-20T01:13:27.812Z,50.24
2023-07-20T01:15:58.903Z,49.79
2023-07-20T01:18:26.789Z,49.67
2023-07-20T01:20:58.290Z,50.07
2023-07-20T01:24:06.708Z,49.17
2023-07-20T01:29:51.331Z,49.65
2023-07-20T01:32:24.346Z,49.15
2023-07-20T01:34:55.757Z,48.82
2023-07-20T01:37:23.808Z,48.51
2023-07-20T01:39:51.670Z,48.56
2023-07-20T01:42:19.440Z,48.69
2023-07-20T01:44:46.980Z,48.46
2023-07-20T01:47:14.578Z,48.46
2023-07-20T01:49:43.690Z,48.16
2023-07-20T01:52:14.042Z,48.74
2023-07-20T01:54:42.363Z,48.99
2023-07-20T01:57:10.057Z,48.37
2023-07-20T01:59:37.612Z,48.98
2023-07-20T02:02:05.866Z,49.24
2023-07-20T02:04:33.406Z,48.54
2023-07-20T02:07:02.421Z,48.14
2023-07-20T02:09:29.979Z,47.54
2023-07-20T02:11:57.542Z,47.86
2023-07-20T02:14:25.197Z,48.63
2023-07-20T02:16:52.758Z,47.96
2023-07-20T02:19:22.010Z,47.98
2023-07-20T02:21:49.748Z,48.10
2023-07-20T02:24:18.814Z,48.38
2023-07-20T02:26:46.441Z,47.23
2023-07-20T02:29:14.604Z,48.21
2023-07-20T02:31:42.316Z,47.80
2023-07-20T02:34:10.141Z,47.93
2023-07-20T02:36:37.711Z,48.21
2023-07-20T02:39:05.659Z,47.81
2023-07-20T02:41:35.097Z,47.56
2023-07-20T02:44:02.721Z,48.53
2023-07-20T02:46:30.535Z,48.53
2023-07-20T02:48:59.779Z,47.92
2023-07-20T02:51:27.417Z,47.67
2023-07-20T02:53:54.983Z,47.44
2023-07-20T02:56:22.772Z,47.71
2023-07-20T02:58:52.058Z,47.78
2023-07-20T03:01:19.870Z,47.15
2023-07-20T03:03:47.616Z,47.27
2023-07-20T03:06:15.659Z,46.74
2023-07-20T03:08:44.204Z,46.66
2023-07-20T03:11:11.866Z,47.29
2023-07-20T03:13:40.697Z,47.75
2023-07-20T03:16:09.898Z,46.68
2023-07-20T03:18:37.755Z,47.24
2023-07-20T03:21:05.445Z,46.83
2023-07-20T03:23:33.720Z,46.78
2023-07-20T03:26:01.985Z,47.17
2023-07-20T03:28:29.650Z,46.87
2023-07-20T03:30:58.036Z,46.30
2023-07-20T03:33:28.772Z,46.70
2023-07-20T03:35:57.280Z,46.49
2023-07-20T03:38:25.443Z,46.21
2023-07-20T03:40:53.526Z,46.75
2023-07-20T03:43:21.442Z,46.80
2023-07-20T03:45:49.656Z,46.37
2023-07-20T03:48:18.218Z,46.12
2023-07-20T03:50:48.529Z,46.43
2023-07-20T03:53:17.032Z,46.83
2023-07-20T03:55:46.553Z,45.90
2023-07-20T03:58:14.541Z,46.89
2023-07-20T04:00:45.723Z,46.64
2023-07-20T04:03:13.503Z,46.19
2023-07-20T04:05:41.400Z,46.16
2023-07-20T04:08:10.630Z,46.95
2023-07-20T04:10:38.290Z,46.37
2023-07-20T04:13:06.065Z,46.36
2023-07-20T04:15:33.892Z,45.20
2023-07-20T04:18:01.701Z,46.19
2023-07-20T04:20:29.575Z,46.37
2023-07-20T04:22:57.194Z,45.77
2023-07-20T04:25:27.027Z,46.47
2023-07-20T04:27:54.781Z,46.69
2023-07-20T04:30:22.706Z,46.78
2023-07-20T04:32:50.753Z,46.06
2023-07-20T04:35:39.928Z,46.69
2023-07-20T04:38:09.770Z,46.08
2023-07-20T04:40:39.550Z,46.57
2023-07-20T04:43:07.229Z,46.30
2023-07-20T04:45:35.515Z,46.72
2023-07-20T04:48:03.299Z,46.73
2023-07-20T04:50:32.263Z,46.40
2023-07-20T04:52:59.957Z,45.87
2023-07-20T04:55:27.966Z,46.20
2023-07-20T04:57:58.398Z,47.87
2023-07-20T05:00:27.362Z,46.66
2023-07-20T05:02:55.021Z,47.76
2023-07-20T05:05:22.761Z,46.74
2023-07-20T05:07:50.496Z,49.11
2023-07-20T05:10:18.406Z,50.67
2023-07-20T05:12:45.991Z,51.16
2023-07-20T05:15:15.533Z,52.54
2023-07-20T05:17:43.202Z,50.66
2023-07-20T05:20:11.321Z,50.51
2023-07-20T05:22:39.146Z,51.19
2023-07-20T05:25:08.362Z,51.49
2023-07-20T05:27:36.292Z,51.46
2023-07-20T05:30:04.292Z,51.57
2023-07-20T05:32:33.336Z,51.14
2023-07-20T05:35:01.530Z,51.69
2023-07-20T05:37:29.144Z,51.08
2023-07-20T05:39:57.305Z,51.26
2023-07-20T05:42:24.888Z,50.71
2023-07-20T05:44:52.437Z,51.40
2023-07-20T05:47:19.981Z,51.41
2023-07-20T05:49:49.314Z,51.55
2023-07-20T05:52:17.136Z,50.89
2023-07-20T05:54:44.735Z,50.34
2023-07-20T05:57:12.373Z,50.55
2023-07-20T05:59:40.475Z,51.34
2023-07-20T06:02:08.569Z,51.79
2023-07-20T06:04:36.148Z,51.96
2023-07-20T06:07:05.483Z,51.77
2023-07-20T06:09:33.089Z,51.97
2023-07-20T06:12:00.975Z,53.06
2023-07-20T06:14:28.524Z,51.55
2023-07-20T06:16:56.086Z,52.24
2023-07-20T06:19:23.758Z,50.36
2023-07-20T06:21:51.357Z,50.69
2023-07-20T06:24:20.525Z,50.58
2023-07-20T06:26:48.628Z,50.98
2023-07-20T06:29:16.222Z,51.46
2023-07-20T06:31:43.945Z,51.36
2023-07-20T06:34:11.660Z,51.77
2023-07-20T06:36:39.328Z,51.56
2023-07-20T06:44:09.964Z,53.32
2023-07-20T06:46:37.605Z,52.19
2023-07-20T06:51:38.487Z,52.75
2023-07-20T06:54:06.116Z,52.62
2023-07-20T06:56:34.283Z,51.95
2023-07-20T06:59:03.661Z,50.31
2023-07-20T07:01:31.261Z,50.85
2023-07-20T07:03:59.019Z,50.86
2023-07-20T07:06:26.980Z,51.15
2023-07-20T07:08:54.689Z,49.96
2023-07-20T07:11:23.144Z,50.30
2023-07-20T07:13:51.222Z,50.67
2023-07-20T07:16:21.205Z,52.59
2023-07-20T07:18:49.404Z,52.08
2023-07-20T07:21:17.023Z,52.63
2023-07-20T07:23:44.998Z,49.91
2023-07-20T07:26:12.795Z,50.07
2023-07-20T07:28:40.348Z,50.19
2023-07-20T07:31:09.006Z,50.22
2023-07-20T07:33:38.151Z,49.60
2023-07-20T07:36:06.410Z,50.81
2023-07-20T07:39:07.290Z,49.82
2023-07-20T07:41:21.710Z,50.96
2023-07-20T07:43:49.261Z,50.96
2023-07-20T07:46:16.993Z,50.73
2023-07-20T07:48:46.044Z,49.72
2023-07-20T07:51:13.796Z,50.83
2023-07-20T07:53:41.516Z,49.63
2023-07-20T07:56:09.197Z,48.71
2023-07-20T07:58:36.786Z,49.70
2023-07-20T08:01:04.509Z,49.77
2023-07-20T08:03:32.157Z,49.43
2023-07-20T08:06:01.297Z,48.26
2023-07-20T08:08:28.916Z,49.02
2023-07-20T08:10:56.502Z,49.00
2023-07-20T08:13:24.185Z,48.28
2023-07-20T08:15:52.765Z,49.10
2023-07-20T08:18:20.539Z,49.42
2023-07-20T08:20:48.969Z,48.60
2023-07-20T08:23:18.047Z,48.72
2023-07-20T08:25:45.592Z,48.41
2023-07-20T08:28:15.441Z,48.57
2023-07-20T08:30:44.084Z,48.39
2023-07-20T08:33:15.308Z,48.15
2023-07-20T08:35:43.106Z,48.94
2023-07-20T08:38:10.708Z,49.05
2023-07-20T08:40:43.497Z,48.57
2023-07-20T08:43:12.353Z,49.15
2023-07-20T08:45:41.302Z,48.29
2023-07-20T08:48:09.513Z,48.91
2023-07-20T08:50:37.342Z,48.34
2023-07-20T08:53:05.308Z,48.63
2023-07-20T08:55:32.947Z,48.74
2023-07-20T08:58:04.270Z,47.19
2023-07-20T09:00:32.356Z,47.20
2023-07-20T09:03:02.102Z,47.05
2023-07-20T09:05:29.725Z,46.56
2023-07-20T09:07:57.319Z,47.06
2023-07-20T09:10:25.724Z,46.21
2023-07-20T09:12:53.462Z,46.16
2023-07-20T09:15:23.895Z,46.82
2023-07-20T09:17:52.478Z,47.16
2023-07-20T09:20:22.958Z,46.63
2023-07-20T09:22:52.871Z,45.97
2023-07-20T09:25:22.592Z,46.61
2023-07-20T09:27:52.489Z,46.92
2023-07-20T09:30:31.642Z,46.34
2023-07-20T09:33:00.276Z,46.41
2023-07-20T09:35:35.550Z,46.97
2023-07-20T09:50:52.351Z,46.62
2023-07-20T09:53:20.870Z,46.70
2023-07-20T09:55:49.256Z,46.67
2023-07-20T09:58:18.023Z,47.00
2023-07-20T10:00:53.789Z,46.85
2023-07-20T10:03:23.285Z,46.16
2023-07-20T10:05:55.823Z,46.52
2023-07-20T10:11:00.323Z,45.31
2023-07-20T10:13:29.046Z,45.02
2023-07-20T10:16:04.047Z,47.02
2023-07-20T10:18:39.764Z,46.16
2023-07-20T10:23:40.264Z,45.19
2023-07-20T10:26:08.572Z,46.58
2023-07-20T10:28:36.862Z,47.47
2023-07-20T10:31:07.310Z,51.39
2023-07-20T10:33:35.365Z,47.28
2023-07-20T10:36:04.771Z,47.75
2023-07-20T10:38:43.067Z,48.46
2023-07-20T10:41:21.543Z,49.48
2023-07-20T10:43:50.140Z,50.71
2023-07-20T10:46:35.303Z,51.00
2023-07-20T10:49:04.283Z,51.15
2023-07-20T10:51:39.639Z,52.16
2023-07-20T10:54:09.929Z,52.54
2023-07-20T10:59:19.341Z,53.41
2023-07-20T11:01:49.107Z,53.75
2023-07-20T11:04:17.239Z,53.65
2023-07-20T11:06:45.444Z,54.39
2023-07-20T11:09:14.185Z,54.41
2023-07-20T11:11:43.015Z,54.07
2023-07-20T11:14:11.735Z,54.50
2023-07-20T11:16:41.366Z,53.37
2023-07-20T11:20:22.975Z,54.21
2023-07-20T11:22:06.732Z,54.19
2023-07-20T11:24:34.597Z,53.56
2023-07-20T11:27:02.617Z,53.64
2023-07-20T11:29:33.577Z,54.06
2023-07-20T11:32:03.438Z,53.09
2023-07-20T11:34:35.817Z,52.48
2023-07-20T11:39:34.470Z,52.84
2023-07-20T11:42:02.185Z,53.20
2023-07-20T11:44:31.164Z,53.33
2023-07-20T11:47:02.993Z,53.25
2023-07-20T11:49:31.802Z,53.57
2023-07-20T11:52:03.164Z,53.06
2023-07-20T11:54:31.500Z,52.56
2023-07-20T11:57:02.578Z,51.42
2023-07-20T11:59:30.269Z,51.37
2023-07-20T12:01:57.937Z,50.67
2023-07-20T12:04:25.618Z,49.74
2023-07-20T12:06:55.128Z,49.56
2023-07-20T12:11:52.250Z,49.30
2023-07-20T12:14:19.803Z,49.83
2023-07-20T12:16:54.666Z,49.71
2023-07-20T12:19:22.257Z,49.59
2023-07-20T12:21:49.783Z,49.04
2023-07-20T12:24:19.397Z,49.75
2023-07-20T12:26:48.048Z,49.18
2023-07-20T12:29:15.622Z,49.29
2023-07-20T12:31:43.261Z,49.12
2023-07-20T12:34:10.826Z,48.52
2023-07-20T12:36:38.677Z,48.05
2023-07-20T12:39:06.288Z,48.02
2023-07-20T12:41:33.868Z,47.98
2023-07-20T12:44:02.876Z,47.37
2023-07-20T12:46:30.546Z,46.91
2023-07-20T12:48:58.132Z,46.48
2023-07-20T12:51:25.842Z,46.52
2023-07-20T12:53:53.426Z,45.90
2023-07-20T12:58:51.896Z,46.03
2023-07-20T13:01:21.014Z,46.30
2023-07-20T13:08:49.560Z,45.06
2023-07-20T13:11:17.133Z,43.73
2023-07-20T13:13:44.691Z,43.30
2023-07-20T13:16:12.331Z,43.43
2023-07-20T13:18:41.390Z,43.86
2023-07-20T13:21:08.959Z,44.29
2023-07-20T13:23:36.537Z,43.27
2023-07-20T13:26:04.309Z,44.57
2023-07-20T13:28:31.896Z,44.95
2023-07-20T13:30:59.586Z,43.69
2023-07-20T13:33:28.958Z,44.22
2023-07-20T13:35:58.476Z,44.36
2023-07-20T13:38:26.060Z,44.47
2023-07-20T13:40:53.633Z,44.43
2023-07-20T13:43:21.173Z,44.73
2023-07-20T13:45:49.338Z,45.22
2023-07-20T13:48:18.036Z,45.08
2023-07-20T13:51:00.300Z,44.45
2023-07-20T13:58:31.982Z,44.18
2023-07-20T14:00:59.757Z,44.34
2023-07-20T14:03:27.465Z,42.83
2023-07-20T14:08:25.512Z,43.92
2023-07-20T14:13:37.897Z,41.62
2023-07-20T14:16:09.767Z,43.22
2023-07-20T14:18:37.441Z,43.91
2023-07-20T14:21:05.088Z,44.19
2023-07-20T14:23:32.657Z,43.81
2023-07-20T14:26:01.634Z,43.51
2023-07-20T14:28:29.231Z,42.34
2023-07-20T14:30:56.807Z,42.38
2023-07-20T14:33:24.448Z,43.72
2023-07-20T14:35:52.154Z,42.84
2023-07-20T14:38:19.794Z,41.23
2023-07-20T14:40:47.359Z,41.74
2023-07-20T14:43:16.417Z,42.82
2023-07-20T14:45:44.056Z,43.91
2023-07-20T14:48:11.718Z,43.76
2023-07-20T14:50:39.363Z,42.95
2023-07-20T14:53:07.110Z,43.65
2023-07-20T14:55:34.948Z,43.43
2023-07-20T14:58:02.498Z,43.46
2023-07-20T15:00:31.646Z,44.00
2023-07-20T15:02:59.272Z,44.27
2023-07-20T15:05:27.049Z,44.35
2023-07-20T15:07:54.948Z,42.32
2023-07-20T15:10:22.632Z,41.95
2023-07-20T15:12:50.186Z,44.68
2023-07-20T15:15:17.927Z,44.09
2023-07-20T15:17:47.190Z,43.43
2023-07-20T15:20:15.514Z,42.05
2023-07-20T15:22:43.281Z,43.71
2023-07-20T15:25:12.202Z,43.75
2023-07-20T15:27:41.280Z,44.22
2023-07-20T15:30:11.037Z,43.64
2023-07-20T15:35:11.520Z,44.07
2023-07-20T15:37:39.089Z,43.35
2023-07-20T15:40:08.203Z,44.10
2023-07-20T15:42:38.666Z,44.42
2023-07-20T15:45:07.620Z,43.92
2023-07-20T15:47:35.351Z,43.56
2023-07-20T15:50:03.100Z,43.47
2023-07-20T15:52:32.463Z,42.68
2023-07-20T15:55:00.113Z,43.51
2023-07-20T15:57:27.726Z,44.94
2023-07-20T15:59:55.243Z,44.01
2023-07-20T16:02:22.818Z,43.42
2023-07-20T16:04:53.558Z,44.14
2023-07-20T16:07:21.769Z,44.09
2023-07-20T16:09:50.854Z,43.13
2023-07-20T16:12:18.730Z,42.31
2023-07-20T16:17:16.689Z,44.69
2023-07-20T16:19:44.283Z,44.78
2023-07-20T16:22:11.813Z,44.35
2023-07-20T16:24:39.468Z,42.96
2023-07-20T16:27:08.837Z,44.32
2023-07-20T16:29:36.511Z,43.47
2023-07-20T16:34:48.595Z,44.48
2023-07-20T16:39:51.703Z,43.57
2023-07-20T16:43:06.147Z,42.25
2023-07-20T16:45:09.499Z,43.96
2023-07-20T16:47:37.192Z,44.61
2023-07-20T16:50:05.802Z,42.37
2023-07-20T16:52:33.376Z,43.65
2023-07-20T16:55:01.012Z,42.72
2023-07-20T16:57:30.101Z,42.43
2023-07-20T16:59:57.819Z,41.93
2023-07-20T17:02:25.486Z,43.34
2023-07-20T17:04:53.425Z,42.00
2023-07-20T17:07:21.122Z,41.99
2023-07-20T17:09:48.706Z,43.30
2023-07-20T17:12:16.287Z,43.50
2023-07-20T17:14:45.339Z,42.12
2023-07-20T17:17:12.909Z,42.55
2023-07-20T17:19:40.603Z,43.45
2023-07-20T17:22:08.254Z,42.30
2023-07-20T17:29:37.299Z,43.28
2023-07-20T17:32:07.573Z,43.51
2023-07-20T17:34:35.299Z,42.36
2023-07-20T17:43:06.803Z,42.43
2023-07-20T17:44:53.185Z,44.19
2023-07-20T17:47:22.234Z,43.82
2023-07-20T17:49:49.938Z,43.28
2023-07-20T17:52:17.491Z,42.45
2023-07-20T17:54:45.088Z,44.36
2023-07-20T17:57:12.690Z,44.23
2023-07-20T18:02:10.953Z,43.00
2023-07-20T18:04:40.566Z,42.77
2023-07-20T18:07:07.732Z,41.34
2023-07-20T18:09:35.350Z,42.30
2023-07-20T18:12:02.939Z,42.58
2023-07-20T18:14:30.494Z,43.44
2023-07-20T18:16:58.091Z,42.41
2023-07-20T18:19:25.638Z,42.68
2023-07-20T18:21:54.616Z,41.67
2023-07-20T18:24:22.214Z,42.07
2023-07-20T18:26:49.799Z,42.47
2023-07-20T18:29:17.373Z,41.62
2023-07-20T18:31:45.058Z,42.78
2023-07-20T18:34:12.721Z,43.00
2023-07-20T18:36:40.239Z,42.84
2023-07-20T18:39:09.277Z,42.42
2023-07-20T18:41:37.303Z,43.46
2023-07-20T18:44:05.050Z,41.19
2023-07-20T18:46:32.613Z,44.27
2023-07-20T18:49:00.815Z,43.13
2023-07-20T18:51:28.374Z,42.64
2023-07-20T18:53:56.032Z,42.98
2023-07-20T18:56:25.068Z,43.36
2023-07-20T18:58:52.758Z,42.96
2023-07-20T19:01:20.751Z,42.56
2023-07-20T19:03:48.588Z,42.65
2023-07-20T19:06:16.214Z,43.82
2023-07-20T19:08:43.822Z,42.23
2023-07-20T19:13:43.638Z,43.02
2023-07-20T19:16:11.486Z,42.76
2023-07-20T19:18:39.217Z,43.16
2023-07-20T19:21:06.867Z,43.00
2023-07-20T19:23:34.723Z,42.05
2023-07-20T19:26:06.621Z,42.73
2023-07-20T19:28:34.696Z,43.43
2023-07-20T19:31:03.946Z,41.60
2023-07-20T19:33:32.020Z,42.96
2023-07-20T19:36:02.899Z,42.22
2023-07-20T19:38:30.446Z,42.13
2023-07-20T19:40:58.182Z,42.70
2023-07-20T19:43:25.772Z,41.72
2023-07-20T19:45:53.345Z,43.62
2023-07-20T19:48:22.492Z,42.58
2023-07-20T19:50:50.468Z,43.41
2023-07-20T19:55:49.821Z,42.32
2023-07-20T19:58:18.427Z,42.74
2023-07-20T20:05:48.778Z,41.83
2023-07-20T20:08:16.296Z,43.31
2023-07-20T20:13:14.252Z,42.86
2023-07-20T20:15:42.486Z,42.02
2023-07-20T20:18:10.083Z,44.95
2023-07-20T20:20:37.670Z,42.88
2023-07-20T20:23:17.298Z,42.70
2023-07-20T20:25:44.501Z,42.43
2023-07-20T20:28:12.158Z,43.10
2023-07-20T20:30:39.754Z,44.03
2023-07-20T20:33:07.673Z,42.99
2023-07-20T20:35:35.562Z,43.45
2023-07-20T20:38:03.389Z,43.05
2023-07-20T20:40:32.374Z,44.70
2023-07-20T20:42:59.898Z,42.12
2023-07-20T20:45:27.469Z,43.28
2023-07-20T20:47:55.102Z,42.26
2023-07-20T20:50:22.768Z,43.53
2023-07-20T20:52:50.467Z,42.95
2023-07-20T20:55:18.043Z,42.09
2023-07-20T20:57:48.851Z,43.21
2023-07-20T21:00:17.468Z,43.28
2023-07-20T21:02:47.361Z,43.74
2023-07-20T21:05:15.344Z,41.96
2023-07-20T21:07:43.431Z,42.08
2023-07-20T21:10:11.228Z,43.22
2023-07-20T21:12:38.809Z,43.52
2023-07-20T21:15:10.254Z,43.16
2023-07-20T21:17:38.135Z,43.74
2023-07-20T21:20:07.180Z,42.74
2023-07-20T21:22:35.185Z,42.95
2023-07-20T21:25:02.745Z,42.95
2023-07-20T21:27:30.311Z,43.10
2023-07-20T21:29:57.862Z,43.21
2023-07-20T21:32:26.940Z,42.49
2023-07-20T21:34:54.462Z,43.34
2023-07-20T21:37:22.040Z,43.79
2023-07-20T21:39:49.553Z,43.96
2023-07-20T21:42:17.122Z,42.46
2023-07-20T21:44:44.866Z,42.35
2023-07-20T21:47:12.529Z,42.97
2023-07-20T21:49:42.072Z,44.87
2023-07-20T21:52:09.632Z,42.08
2023-07-20T21:54:37.721Z,42.43
2023-07-20T21:57:05.473Z,43.87
2023-07-20T21:59:33.015Z,43.23
2023-07-20T22:02:00.759Z,43.07
2023-07-20T22:04:28.643Z,42.81
2023-07-20T22:06:57.871Z,42.47
2023-07-20T22:09:25.516Z,43.04
2023-07-20T22:11:53.092Z,42.64
2023-07-20T22:14:20.697Z,43.62
2023-07-20T22:16:48.329Z,42.34
2023-07-20T22:19:16.040Z,41.97
2023-07-20T22:21:44.054Z,42.55
2023-07-20T22:24:13.096Z,42.40
2023-07-20T22:26:40.672Z,42.04
2023-07-20T22:29:08.255Z,41.38
2023-07-20T22:31:36.129Z,41.46
2023-07-20T22:34:04.022Z,41.14
2023-07-20T22:36:31.588Z,42.19
2023-07-20T22:38:59.437Z,42.25
2023-07-20T22:41:28.465Z,41.55
2023-07-20T22:43:56.030Z,41.38
2023-07-20T22:46:24.132Z,42.87
2023-07-20T22:48:52.052Z,41.57
2023-07-20T22:51:19.731Z,40.80
2023-07-20T22:53:47.311Z,42.00
2023-07-20T22:56:14.873Z,42.13
2023-07-20T22:58:43.953Z,42.78
2023-07-20T23:01:12.036Z,42.67
2023-07-20T23:03:40.268Z,41.18
2023-07-20T23:06:07.917Z,42.62
2023-07-20T23:08:35.484Z,42.49
2023-07-20T23:11:03.250Z,43.28
2023-07-20T23:13:30.815Z,43.06
2023-07-20T23:15:59.867Z,42.02
2023-07-20T23:18:27.433Z,42.40
2023-07-20T23:20:55.117Z,42.46
2023-07-20T23:23:22.781Z,42.89
2023-07-20T23:25:53.193Z,41.93
2023-07-20T23:28:21.417Z,41.86
2023-07-20T23:30:49.138Z,42.90
2023-07-20T23:33:21.937Z,42.77
2023-07-20T23:35:50.861Z,41.67
2023-07-20T23:38:19.081Z,42.06
2023-07-20T23:40:46.676Z,41.86
2023-07-20T23:43:14.298Z,43.18
2023-07-20T23:45:41.881Z,42.06
2023-07-20T23:48:09.736Z,42.40
2023-07-20T23:50:38.850Z,42.02
2023-07-20T23:53:06.429Z,42.99
2023-07-20T23:55:34.011Z,42.87
2023-07-20T23:58:01.583Z,42.35
